Ansonia, OH (45303)

7:33 AM EDT en Septiembre 17, 2014 (GMT -0400)
Darke County | Change Station
CLOSE
Current Station
Aeropuerto
Location: Versailles,
Altura: 1007 ft
Estaciones meteorológicas cercanas
Aviso en curso: Special Statement Aviso activo: Record Report

Alt 1007 ft 40.20 °N, 84.53 °W | Updated 18 minutes ago

Despejado
Despejado
39 ° F
Sensación térmica 39 ° F
N
0
Viento Variable Viento desde Norte

Hoy
Alta -- | Baja -- ° F
--% Posibilidad de precipitaciones
Ayer
Alta -- | Baja -- ° F
Precip. -- pul
7:21 AM 7:44 PM
Cuarto menguante, 37% visible
Presión 30.08 pul
Visibilidad 1.0 Millas
Nubes Nublado 3700 ft
Punto de rocío 39 ° F
Humedad 100%
Precipitaciones 0.00 pul
Espesor de la nieve No disponible.
UV 0 de una escala de 12
Polen 5.40 de una escala de 12
Calidad del aire No disponible.
Flu Activity No disponible.
METAR KVES 171115Z AUTO 00000KT 1SM BR OVC037 04/04 A3008 RMK AO2

More Conditions Fewer Conditions

Presión 30.08 pul
Visibilidad 1.0 Millas
Nubes Nublado 3700 ft
Punto de rocío 39 ° F
Humedad 100%
Precipitaciones 0.00 pul
Espesor de la nieve No disponible.
UV 0 de una escala de 12
Polen 5.40 de una escala de 12
Calidad del aire No disponible.
Flu Activity No disponible.
METAR KVES 171115Z AUTO 00000KT 1SM BR OVC037 04/04 A3008 RMK AO2

More Conditions Fewer Conditions

10-Day Weather Forecast

Almanac

Astronomía

Sep. 17, 2014 Salida Puesta
Hora real 7:21 AM EDT 7:44 PM EDT
Crepúsculo civil 6:54 AM EDT 8:11 PM EDT
Crepúsculo náutico 6:22 AM EDT 8:43 PM EDT
Crepúsculo astronómico 5:49 AM EDT 9:15 PM EDT
Luna 1:20 AM EDT 3:53 PM EDT
Horas de luz 13h 17m
Horas de luz
12h 22m
Tomorrow will be 2m 37s shorter.
Cuarto menguante, 37% of the Moon is Illuminated
Hoy
Cuarto menguante
Sep 24
Nueva
Oct 1
Cuarto creciente
Oct 8
Luna llena
Oct 15
Cuarto menguante

Extremos de hoy

Máximos del estado Bajos del estado

Community

WunderPhotos

Upload Photos

1,754,003 ¡fotos cargadas!

Nearby

Calidad del aire

  Calidad del aire Índice AQ Contaminante
Ayer Buena
PM2.5
Ayer Buena
OZONE
Miércoles Buena
OZONE
Miércoles Buena
PM2.5
Jueves Buena
OZONE
Jueves Buena
PM2.5
Viernes Buena
PM2.5
Viernes Buena
OZONE
Sábado Moderada
PM2.5
Sábado Buena
OZONE

Grosos de nieve

Estación Profundido Altura
No tenemos constancia de nieve nueva.

Actividad de terremotos

Ciudad Distance Mag. Tiempo y dato
No hay informes recientes de la actividad sísmica.
Magnitud mínima muestra es 2,5.

Temperaturas de aguas costeras

Lugar Temperatura
Sin partes meteorológicos de las estaciones

Estaciones meteorológicas cercanas